createdAt,value
2022-10-23T00:00:43.894Z,11.84
2022-10-23T00:03:10.397Z,11.83
2022-10-23T00:05:40.646Z,11.83
2022-10-23T00:08:07.867Z,11.88
2022-10-23T00:10:35.273Z,11.89
2022-10-23T00:13:02.690Z,11.83
2022-10-23T00:15:29.156Z,11.76
2022-10-23T00:17:55.607Z,11.70
2022-10-23T00:20:22.524Z,11.64
2022-10-23T00:22:49.014Z,11.61
2022-10-23T00:25:16.378Z,11.62
2022-10-23T00:27:43.397Z,11.59
2022-10-23T00:30:11.347Z,11.57
2022-10-23T00:32:37.858Z,11.57
2022-10-23T00:35:04.875Z,11.59
2022-10-23T00:37:31.434Z,11.53
2022-10-23T00:39:58.107Z,11.44
2022-10-23T00:42:24.698Z,11.45
2022-10-23T00:44:51.065Z,11.51
2022-10-23T00:47:17.949Z,11.51
2022-10-23T00:49:44.527Z,11.45
2022-10-23T00:52:13.619Z,11.46
2022-10-23T00:54:42.795Z,11.37
2022-10-23T00:57:14.830Z,11.43
2022-10-23T00:59:41.689Z,11.37
2022-10-23T01:02:08.370Z,11.33
2022-10-23T01:04:36.363Z,11.31
2022-10-23T01:07:58.389Z,11.38
2022-10-23T01:10:44.478Z,11.35
2022-10-23T01:13:30.956Z,11.36
2022-10-23T01:16:10.879Z,11.35
2022-10-23T01:18:44.874Z,11.30
2022-10-23T01:21:29.469Z,11.26
2022-10-23T01:24:06.073Z,11.30
2022-10-23T01:26:50.314Z,11.30
2022-10-23T01:29:30.556Z,11.29
2022-10-23T01:32:07.884Z,11.26
2022-10-23T01:34:50.643Z,11.30
2022-10-23T01:37:24.225Z,11.28
2022-10-23T01:39:55.317Z,11.28
2022-10-23T01:42:26.254Z,11.26
2022-10-23T01:44:58.043Z,11.29
2022-10-23T01:47:28.469Z,11.26
2022-10-23T01:49:57.819Z,11.21
2022-10-23T01:52:24.447Z,11.21
2022-10-23T01:54:53.809Z,11.24
2022-10-23T01:57:23.157Z,11.20
2022-10-23T02:00:01.163Z,11.20
2022-10-23T02:02:29.050Z,11.27
2022-10-23T02:05:00.185Z,11.36
2022-10-23T02:07:26.937Z,11.34
2022-10-23T02:09:53.677Z,11.34
2022-10-23T02:12:40.305Z,11.30
2022-10-23T02:15:27.040Z,11.29
2022-10-23T02:18:15.434Z,11.30
2022-10-23T02:21:07.649Z,11.29
2022-10-23T02:23:38.940Z,11.32
2022-10-23T02:26:38.013Z,11.35
2022-10-23T02:29:10.917Z,11.28
2022-10-23T02:31:37.437Z,11.28
2022-10-23T02:34:04.101Z,11.26
2022-10-23T02:36:30.511Z,11.24
2022-10-23T02:38:57.263Z,11.24
2022-10-23T02:41:41.738Z,11.23
2022-10-23T02:44:26.377Z,11.23
2022-10-23T02:47:30.959Z,11.23
2022-10-23T02:50:10.083Z,11.23
2022-10-23T02:53:01.181Z,11.19
2022-10-23T02:55:39.583Z,11.10
2022-10-23T02:58:10.685Z,11.07
2022-10-23T03:00:43.464Z,11.00
2022-10-23T03:03:14.837Z,11.01
2022-10-23T03:05:42.128Z,11.02
2022-10-23T03:08:09.684Z,10.97
2022-10-23T03:10:36.173Z,10.93
2022-10-23T03:13:02.563Z,10.96
2022-10-23T03:15:29.022Z,10.93
2022-10-23T03:17:55.564Z,10.90
2022-10-23T03:20:22.318Z,10.88
2022-10-23T03:22:48.903Z,10.88
2022-10-23T03:25:15.396Z,10.88
2022-10-23T03:27:41.796Z,10.84
2022-10-23T03:30:09.112Z,10.81
2022-10-23T03:32:35.569Z,10.78
2022-10-23T03:35:02.126Z,10.79
2022-10-23T03:37:28.652Z,10.74
2022-10-23T03:39:55.199Z,10.73
2022-10-23T03:42:21.673Z,10.71
2022-10-23T03:44:48.128Z,10.71
2022-10-23T03:47:14.672Z,10.66
2022-10-23T03:49:41.106Z,10.62
2022-10-23T03:52:08.508Z,10.62
2022-10-23T03:54:35.227Z,10.63
2022-10-23T03:57:02.131Z,10.60
2022-10-23T03:59:30.457Z,10.59
2022-10-23T04:01:56.979Z,10.60
2022-10-23T04:04:23.544Z,10.57
2022-10-23T04:06:50.046Z,10.56
2022-10-23T04:09:16.762Z,10.53
2022-10-23T04:11:43.135Z,10.56
2022-10-23T04:14:13.210Z,10.59
2022-10-23T04:16:39.720Z,10.60
2022-10-23T04:19:06.183Z,10.53
2022-10-23T04:21:32.611Z,10.55
2022-10-23T04:23:59.055Z,10.55
2022-10-23T04:26:25.528Z,10.54
2022-10-23T04:28:51.925Z,10.51
2022-10-23T04:31:18.363Z,10.54
2022-10-23T04:33:44.714Z,10.49
2022-10-23T04:36:11.166Z,10.45
2022-10-23T04:38:37.562Z,10.43
2022-10-23T04:41:04.010Z,10.44
2022-10-23T04:43:30.452Z,10.44
2022-10-23T04:45:56.933Z,10.47
2022-10-23T04:48:25.615Z,10.48
2022-10-23T04:51:03.473Z,10.55
2022-10-23T04:53:30.594Z,10.50
2022-10-23T04:55:58.492Z,10.51
2022-10-23T04:58:27.569Z,10.59
2022-10-23T05:00:54.478Z,10.55
2022-10-23T05:03:22.887Z,10.51
2022-10-23T05:05:49.329Z,10.53
2022-10-23T05:08:18.055Z,10.53
2022-10-23T05:10:44.969Z,10.52
2022-10-23T05:13:11.417Z,10.52
2022-10-23T05:15:37.893Z,10.45
2022-10-23T05:18:25.813Z,10.44
2022-10-23T05:21:00.523Z,10.46
2022-10-23T05:23:28.841Z,10.48
2022-10-23T05:25:55.332Z,10.46
2022-10-23T05:28:21.726Z,10.50
2022-10-23T05:30:49.321Z,10.48
2022-10-23T05:33:15.730Z,10.50
2022-10-23T05:35:44.492Z,10.46
2022-10-23T05:38:11.741Z,10.47
2022-10-23T05:43:05.517Z,10.47
2022-10-23T05:45:31.967Z,10.51
2022-10-23T05:48:10.617Z,10.50
2022-10-23T05:50:44.900Z,10.47
2022-10-23T05:53:11.391Z,10.46
2022-10-23T05:55:38.137Z,10.49
2022-10-23T05:58:05.187Z,10.51
2022-10-23T06:00:32.435Z,10.57
2022-10-23T06:03:02.498Z,10.53
2022-10-23T06:05:28.952Z,10.55
2022-10-23T06:07:59.513Z,10.56
2022-10-23T06:10:26.807Z,10.65
2022-10-23T06:12:53.375Z,10.70
2022-10-23T06:15:19.759Z,10.74
2022-10-23T06:17:46.444Z,10.75
2022-10-23T06:20:13.112Z,10.83
2022-10-23T06:22:39.504Z,10.89
2022-10-23T06:25:06.585Z,10.91
2022-10-23T06:27:33.025Z,10.93
2022-10-23T06:29:59.400Z,10.97
2022-10-23T06:32:25.798Z,11.05
2022-10-23T06:34:52.283Z,11.13
2022-10-23T06:37:18.765Z,11.23
2022-10-23T06:39:45.162Z,11.33
2022-10-23T06:42:12.040Z,11.42
2022-10-23T06:44:38.504Z,11.50
2022-10-23T06:47:05.238Z,11.47
2022-10-23T06:49:31.663Z,11.55
2022-10-23T06:51:58.272Z,11.64
2022-10-23T06:54:25.578Z,11.73
2022-10-23T06:56:52.097Z,11.90
2022-10-23T06:59:19.498Z,11.92
2022-10-23T07:01:46.141Z,12.00
2022-10-23T07:04:14.352Z,12.09
2022-10-23T07:06:42.268Z,12.14
2022-10-23T07:09:09.008Z,12.21
2022-10-23T07:11:35.616Z,12.30
2022-10-23T07:14:02.048Z,12.31
2022-10-23T07:16:28.591Z,12.45
2022-10-23T07:19:01.079Z,12.50
2022-10-23T07:21:30.159Z,12.55
2022-10-23T07:23:57.898Z,12.56
2022-10-23T07:26:24.544Z,12.70
2022-10-23T07:28:54.949Z,12.61
2022-10-23T07:31:25.745Z,12.69
2022-10-23T07:33:54.557Z,12.79
2022-10-23T07:36:21.318Z,12.99
2022-10-23T07:38:47.802Z,13.12
2022-10-23T07:41:15.396Z,13.56
2022-10-23T07:43:41.930Z,14.70
2022-10-23T07:46:09.929Z,14.98
2022-10-23T07:48:37.698Z,15.28
2022-10-23T07:51:14.699Z,15.77
2022-10-23T07:53:42.033Z,16.68
2022-10-23T07:56:17.474Z,17.11
2022-10-23T07:58:44.193Z,17.15
2022-10-23T08:01:20.209Z,17.66
2022-10-23T08:03:46.920Z,17.71
2022-10-23T08:06:13.471Z,18.08
2022-10-23T08:08:40.123Z,17.75
2022-10-23T08:11:06.692Z,18.09
2022-10-23T08:13:33.507Z,18.55
2022-10-23T08:16:00.024Z,18.89
2022-10-23T08:18:26.512Z,18.75
2022-10-23T08:20:53.145Z,18.39
2022-10-23T08:23:20.397Z,17.84
2022-10-23T08:25:46.933Z,17.85
2022-10-23T08:28:13.610Z,18.12
2022-10-23T08:30:40.045Z,18.52
2022-10-23T08:33:07.548Z,18.34
2022-10-23T08:35:38.532Z,18.19
2022-10-23T08:38:05.977Z,18.34
2022-10-23T08:40:33.017Z,18.39
2022-10-23T08:43:33.911Z,17.84
2022-10-23T08:46:08.657Z,18.40
2022-10-23T08:48:41.846Z,19.13
2022-10-23T08:51:37.844Z,18.85
2022-10-23T08:54:20.894Z,18.95
2022-10-23T08:56:53.409Z,18.52
2022-10-23T08:59:32.930Z,18.74
2022-10-23T09:02:17.615Z,18.40
2022-10-23T09:04:47.460Z,18.56
2022-10-23T09:07:39.601Z,18.63
2022-10-23T09:10:06.014Z,18.79
2022-10-23T09:12:32.784Z,18.82
2022-10-23T09:15:14.516Z,18.56
2022-10-23T09:17:43.329Z,18.59
2022-10-23T09:20:18.626Z,18.15
2022-10-23T09:22:46.118Z,18.35
2022-10-23T09:25:20.075Z,18.63
2022-10-23T09:27:56.676Z,19.17
2022-10-23T09:30:40.497Z,20.03
2022-10-23T09:33:25.716Z,20.64
2022-10-23T09:35:53.945Z,20.73
2022-10-23T09:38:36.546Z,20.72
2022-10-23T09:41:10.976Z,20.24
2022-10-23T09:43:37.579Z,20.90
2022-10-23T09:46:06.721Z,21.12
2022-10-23T09:48:34.322Z,21.61
2022-10-23T09:51:04.334Z,22.31
2022-10-23T09:53:38.778Z,22.40
2022-10-23T09:56:27.192Z,22.56
2022-10-23T09:59:01.109Z,21.76
2022-10-23T10:01:33.604Z,20.95
2022-10-23T10:04:00.158Z,20.81
2022-10-23T10:06:32.207Z,20.66
2022-10-23T10:09:03.623Z,20.56
2022-10-23T10:11:39.243Z,20.34
2022-10-23T10:14:34.176Z,20.03
2022-10-23T10:17:33.653Z,20.00
2022-10-23T10:20:15.369Z,19.92
2022-10-23T10:22:53.906Z,19.70
2022-10-23T10:25:27.691Z,19.76
2022-10-23T10:28:25.201Z,19.74
2022-10-23T10:30:59.693Z,19.79
2022-10-23T10:33:43.582Z,19.88
2022-10-23T10:36:37.759Z,19.72
2022-10-23T10:39:15.356Z,19.87
2022-10-23T10:41:52.620Z,20.09
2022-10-23T10:44:48.616Z,20.12
2022-10-23T10:47:26.233Z,19.90
2022-10-23T10:50:16.835Z,19.99
2022-10-23T10:52:57.739Z,20.12
2022-10-23T10:55:37.672Z,20.45
2022-10-23T10:58:15.740Z,20.64
2022-10-23T11:00:46.573Z,20.69
2022-10-23T11:03:31.705Z,20.73
2022-10-23T11:06:00.970Z,20.76
2022-10-23T11:08:44.402Z,20.54
2022-10-23T11:11:22.630Z,20.66
2022-10-23T11:13:51.486Z,20.78
2022-10-23T11:16:39.608Z,20.68
2022-10-23T11:19:21.143Z,20.58
2022-10-23T11:22:02.811Z,20.68
2022-10-23T11:24:55.817Z,20.57
2022-10-23T11:28:04.426Z,20.64
2022-10-23T11:30:38.887Z,20.84
2022-10-23T11:33:44.672Z,20.93
2022-10-23T11:36:14.972Z,21.04
2022-10-23T11:38:45.406Z,21.08
2022-10-23T11:41:22.267Z,21.08
2022-10-23T11:43:57.742Z,20.93
2022-10-23T11:46:26.857Z,20.89
2022-10-23T11:48:55.078Z,20.83
2022-10-23T11:51:30.918Z,20.72
2022-10-23T11:54:26.296Z,20.73
2022-10-23T11:57:13.197Z,20.71
2022-10-23T11:59:48.904Z,20.73
2022-10-23T12:02:29.819Z,20.63
2022-10-23T12:05:30.071Z,20.51
2022-10-23T12:07:59.884Z,20.51
2022-10-23T12:10:44.510Z,20.46
2022-10-23T12:13:34.327Z,20.47
2022-10-23T12:16:01.193Z,20.29
2022-10-23T12:18:28.550Z,20.24
2022-10-23T12:20:58.504Z,20.29
2022-10-23T12:24:05.950Z,20.16
2022-10-23T12:26:50.520Z,20.45
2022-10-23T12:29:31.711Z,20.55
2022-10-23T12:32:02.869Z,20.64
2022-10-23T12:35:12.340Z,20.79
2022-10-23T12:38:11.634Z,20.70
2022-10-23T12:40:38.369Z,20.82
2022-10-23T12:43:23.298Z,20.79
2022-10-23T12:45:50.447Z,20.79
2022-10-23T12:48:21.844Z,20.60
2022-10-23T12:50:52.552Z,20.68
2022-10-23T12:53:20.814Z,20.45
2022-10-23T12:58:32.685Z,20.56
2022-10-23T13:01:05.155Z,20.32
2022-10-23T13:03:34.798Z,20.33
2022-10-23T13:06:03.251Z,20.38
2022-10-23T13:08:40.401Z,20.49
2022-10-23T13:11:11.103Z,20.50
2022-10-23T13:13:40.854Z,20.57
2022-10-23T13:16:19.608Z,20.51
2022-10-23T13:18:46.617Z,20.50
2022-10-23T13:21:32.903Z,20.36
2022-10-23T13:24:02.294Z,20.44
2022-10-23T13:26:45.272Z,20.40
2022-10-23T13:29:30.310Z,20.14
2022-10-23T13:31:58.009Z,19.91
2022-10-23T13:34:29.855Z,19.87
2022-10-23T13:37:22.451Z,19.73
2022-10-23T13:39:59.895Z,19.68
2022-10-23T13:42:26.501Z,19.74
2022-10-23T13:44:53.096Z,19.75
2022-10-23T13:47:19.996Z,19.66
2022-10-23T13:49:46.489Z,19.63
2022-10-23T13:52:17.586Z,19.67
2022-10-23T13:54:44.240Z,19.72
2022-10-23T13:57:15.469Z,19.84
2022-10-23T13:59:42.651Z,19.96
2022-10-23T14:02:23.399Z,20.10
2022-10-23T14:04:50.979Z,20.01
2022-10-23T14:07:17.874Z,20.08
2022-10-23T14:09:44.906Z,20.06
2022-10-23T14:12:12.357Z,20.02
2022-10-23T14:14:41.504Z,19.67
2022-10-23T14:17:08.031Z,19.51
2022-10-23T14:19:34.794Z,19.41
2022-10-23T14:22:01.306Z,19.35
2022-10-23T14:24:39.631Z,19.30
2022-10-23T14:27:06.080Z,19.22
2022-10-23T14:29:32.516Z,19.18
2022-10-23T14:31:59.084Z,19.13
2022-10-23T14:34:26.177Z,19.15
2022-10-23T14:37:07.371Z,19.06
2022-10-23T14:39:34.940Z,19.08
2022-10-23T14:42:01.576Z,19.04
2022-10-23T14:44:28.361Z,18.96
2022-10-23T14:46:55.480Z,18.86
2022-10-23T14:49:24.430Z,18.76
2022-10-23T14:51:51.072Z,18.71
2022-10-23T14:54:17.524Z,18.58
2022-10-23T14:56:44.200Z,18.50
2022-10-23T14:59:12.478Z,18.52
2022-10-23T15:01:45.079Z,18.47
2022-10-23T15:04:15.232Z,18.36
2022-10-23T15:06:42.370Z,18.37
2022-10-23T15:09:09.059Z,18.36
2022-10-23T15:11:35.977Z,18.32
2022-10-23T15:14:02.434Z,18.29
2022-10-23T15:16:28.960Z,18.28
2022-10-23T15:18:56.602Z,18.20
2022-10-23T15:24:09.628Z,18.18
2022-10-23T15:26:38.334Z,18.15
2022-10-23T15:29:05.368Z,18.03
2022-10-23T15:31:37.732Z,17.97
2022-10-23T15:34:05.818Z,17.85
2022-10-23T15:36:32.827Z,17.84
2022-10-23T15:38:59.565Z,17.87
2022-10-23T15:41:33.973Z,17.82
2022-10-23T15:44:01.477Z,17.77
2022-10-23T15:46:28.155Z,17.71
2022-10-23T15:48:55.121Z,17.65
2022-10-23T15:51:21.649Z,17.62
2022-10-23T15:53:48.524Z,17.63
2022-10-23T15:56:14.958Z,17.53
2022-10-23T15:58:41.420Z,17.36
2022-10-23T16:01:08.161Z,17.41
2022-10-23T16:03:36.490Z,17.43
2022-10-23T16:06:05.089Z,17.41
2022-10-23T16:08:31.568Z,17.36
2022-10-23T16:10:59.633Z,17.29
2022-10-23T16:13:26.913Z,17.23
2022-10-23T16:15:54.386Z,17.16
2022-10-23T16:18:22.227Z,17.21
2022-10-23T16:20:50.959Z,17.18
2022-10-23T16:23:17.740Z,17.19
2022-10-23T16:25:45.547Z,17.23
2022-10-23T16:28:11.992Z,17.14
2022-10-23T16:30:42.977Z,17.09
2022-10-23T16:33:10.110Z,17.05
2022-10-23T16:35:36.969Z,17.03
2022-10-23T16:38:04.010Z,17.03
2022-10-23T16:40:30.718Z,17.01
2022-10-23T16:42:58.022Z,16.91
2022-10-23T16:45:24.572Z,16.86
2022-10-23T16:47:51.095Z,16.86
2022-10-23T16:50:17.792Z,16.73
2022-10-23T16:52:44.406Z,16.52
2022-10-23T16:55:11.110Z,16.46
2022-10-23T16:57:37.597Z,16.37
2022-10-23T17:00:05.447Z,16.48
2022-10-23T17:02:32.273Z,16.56
2022-10-23T17:04:58.840Z,16.53
2022-10-23T17:07:25.392Z,16.57
2022-10-23T17:09:51.869Z,16.51
2022-10-23T17:12:18.378Z,16.45
2022-10-23T17:14:44.856Z,16.39
2022-10-23T17:17:11.425Z,16.39
2022-10-23T17:19:45.555Z,16.41
2022-10-23T17:22:13.808Z,16.47
2022-10-23T17:24:41.538Z,16.41
2022-10-23T17:27:08.194Z,16.30
2022-10-23T17:29:35.304Z,16.34
2022-10-23T17:32:01.876Z,16.26
2022-10-23T17:34:28.735Z,16.28
2022-10-23T17:36:55.795Z,16.19
2022-10-23T17:39:25.217Z,16.18
2022-10-23T17:41:52.067Z,16.21
2022-10-23T17:44:18.963Z,16.18
2022-10-23T17:46:45.705Z,16.17
2022-10-23T17:49:12.990Z,16.13
2022-10-23T17:51:39.397Z,16.06
2022-10-23T17:54:12.016Z,16.03
2022-10-23T17:56:38.838Z,15.96
2022-10-23T17:59:09.098Z,15.96
2022-10-23T18:01:35.774Z,15.92
2022-10-23T18:04:05.018Z,16.01
2022-10-23T18:06:35.336Z,15.94
2022-10-23T18:09:04.640Z,15.92
2022-10-23T18:11:34.363Z,15.94
2022-10-23T18:14:01.854Z,15.72
2022-10-23T18:16:28.584Z,15.76
2022-10-23T18:18:55.542Z,15.86
2022-10-23T18:21:24.428Z,15.92
2022-10-23T18:23:51.491Z,16.01
2022-10-23T18:26:21.019Z,16.00
2022-10-23T18:28:48.861Z,15.92
2022-10-23T18:31:16.534Z,15.82
2022-10-23T18:33:43.233Z,15.82
2022-10-23T18:36:26.035Z,15.87
2022-10-23T18:38:52.820Z,15.72
2022-10-23T18:41:20.327Z,15.74
2022-10-23T18:43:46.813Z,15.78
2022-10-23T18:46:13.864Z,15.87
2022-10-23T18:48:41.184Z,15.91
2022-10-23T18:51:20.564Z,15.83
2022-10-23T18:53:47.661Z,15.85
2022-10-23T18:56:22.675Z,15.95
2022-10-23T18:58:55.135Z,15.87
2022-10-23T19:01:22.918Z,15.86
2022-10-23T19:03:49.890Z,15.93
2022-10-23T19:06:16.914Z,15.95
2022-10-23T19:08:44.807Z,15.92
2022-10-23T19:11:14.527Z,15.97
2022-10-23T19:13:42.016Z,15.97
2022-10-23T19:16:18.219Z,15.97
2022-10-23T19:18:55.364Z,15.90
2022-10-23T19:21:25.202Z,15.90
2022-10-23T19:23:52.356Z,15.85
2022-10-23T19:26:18.854Z,15.86
2022-10-23T19:28:49.084Z,15.88
2022-10-23T19:31:15.741Z,15.87
2022-10-23T19:33:42.348Z,15.66
2022-10-23T19:36:13.930Z,15.74
2022-10-23T19:38:41.562Z,15.73
2022-10-23T19:41:08.549Z,15.75
2022-10-23T19:43:35.354Z,15.78
2022-10-23T19:46:05.059Z,15.81
2022-10-23T19:48:34.370Z,15.83
2022-10-23T19:51:01.226Z,15.80
2022-10-23T19:53:27.865Z,15.78
2022-10-23T19:56:06.044Z,15.72
2022-10-23T19:58:32.531Z,15.73
2022-10-23T20:00:59.306Z,15.68
2022-10-23T20:03:25.900Z,15.67
2022-10-23T20:05:52.509Z,15.72
2022-10-23T20:08:19.046Z,15.85
2022-10-23T20:10:46.825Z,15.79
2022-10-23T20:13:19.807Z,15.82
2022-10-23T20:15:46.731Z,15.93
2022-10-23T20:18:13.092Z,15.89
2022-10-23T20:20:43.613Z,15.91
2022-10-23T20:23:10.100Z,15.91
2022-10-23T20:25:36.594Z,15.88
2022-10-23T20:28:03.845Z,15.97
2022-10-23T20:30:30.607Z,15.91
2022-10-23T20:32:57.029Z,15.80
2022-10-23T20:35:23.744Z,15.87
2022-10-23T20:37:50.146Z,15.92
2022-10-23T20:40:16.694Z,15.96
2022-10-23T20:42:43.083Z,16.02
2022-10-23T20:45:10.255Z,15.96
2022-10-23T20:47:36.741Z,15.97
2022-10-23T20:50:03.402Z,16.03
2022-10-23T20:54:59.424Z,15.96
2022-10-23T20:57:25.848Z,15.94
2022-10-23T20:59:53.133Z,15.85
2022-10-23T21:02:19.615Z,15.92
2022-10-23T21:04:47.610Z,15.86
2022-10-23T21:07:13.983Z,15.71
2022-10-23T21:09:40.467Z,15.50
2022-10-23T21:12:07.838Z,15.40
2022-10-23T21:14:35.050Z,15.41
2022-10-23T21:17:01.691Z,15.51
2022-10-23T21:19:28.268Z,15.42
2022-10-23T21:21:54.974Z,15.51
2022-10-23T21:24:21.530Z,15.61
2022-10-23T21:26:48.072Z,15.66
2022-10-23T21:29:19.539Z,15.70
2022-10-23T21:32:01.401Z,15.62
2022-10-23T21:34:27.999Z,15.56
2022-10-23T21:37:11.870Z,15.56
2022-10-23T21:39:38.781Z,15.44
2022-10-23T21:42:05.241Z,15.21
2022-10-23T21:44:31.662Z,15.33
2022-10-23T21:46:58.099Z,15.45
2022-10-23T21:49:24.528Z,15.50
2022-10-23T21:51:51.023Z,15.45
2022-10-23T21:54:17.454Z,15.49
2022-10-23T21:56:48.143Z,15.58
2022-10-23T21:59:16.332Z,15.58
2022-10-23T22:01:44.695Z,15.63
2022-10-23T22:04:14.141Z,15.60
2022-10-23T22:06:42.135Z,15.55
2022-10-23T22:09:09.631Z,15.59
2022-10-23T22:11:36.115Z,15.54
2022-10-23T22:14:03.505Z,15.47
2022-10-23T22:16:30.373Z,15.49
2022-10-23T22:18:57.798Z,15.57
2022-10-23T22:21:28.619Z,15.62
2022-10-23T22:23:57.396Z,15.68
2022-10-23T22:26:32.792Z,15.70
2022-10-23T22:29:01.665Z,15.76
2022-10-23T22:31:31.850Z,15.78
2022-10-23T22:34:08.543Z,15.78
2022-10-23T22:36:45.350Z,15.87
2022-10-23T22:39:13.204Z,15.93
2022-10-23T22:41:39.775Z,15.99
2022-10-23T22:44:06.290Z,16.09
2022-10-23T22:46:32.781Z,16.14
2022-10-23T22:48:59.218Z,16.17
2022-10-23T22:51:28.339Z,16.21
2022-10-23T22:53:55.332Z,16.28
2022-10-23T22:56:24.238Z,16.37
2022-10-23T22:58:51.640Z,16.44
2022-10-23T23:05:05.547Z,16.52
2022-10-23T23:07:31.936Z,16.56
2022-10-23T23:09:58.296Z,16.61
2022-10-23T23:12:24.659Z,16.61
2022-10-23T23:14:50.993Z,16.64
2022-10-23T23:21:05.270Z,16.71
2022-10-23T23:23:31.888Z,16.74
2022-10-23T23:25:58.667Z,16.74
2022-10-23T23:28:25.015Z,16.77
2022-10-23T23:31:03.551Z,16.80
2022-10-23T23:33:29.990Z,16.82
2022-10-23T23:35:56.426Z,16.77
2022-10-23T23:38:22.982Z,16.83
2022-10-23T23:40:53.339Z,16.92
2022-10-23T23:43:20.615Z,16.95
2022-10-23T23:45:47.019Z,16.92
2022-10-23T23:48:13.438Z,16.92
2022-10-23T23:50:39.877Z,16.94
2022-10-23T23:53:06.294Z,16.91
2022-10-23T23:55:32.742Z,16.83
2022-10-23T23:57:59.145Z,16.80
